CheckWX is a tool to help pilots better visualize weather data.  It is not intended as a substitute for an official pre-flight weather briefing.

08:06:42 UTC

KEND TAF
Vance AFB Airport
Enid, Oklahoma, USA
TAF AMD KEND 190126Z 1901/1924 12006KT 9999 SKC QNH3015INS BECMG 1916/1917 20015G25KT 9999 SKC QNH3011INS TX17/1918Z TN04/1912Z LAST NO AMDS AFT 1901 NEXT 1910

Mar-19@
01:00 UTC

Mar-19 @ 01:00 UTC

Mar-19@
16:00 UTC

Mar-19 @ 16:00 UTC

TAF AMD KEND 190126Z 1901/1924 12006KT 9999 SKC QNH3015INS
Wind
  • 120° at 6 KTS
Cloud Levels
  • Clear skies

Mar-19@
16:00 UTC

Mar-19 @ 16:00 UTC

Mar-20@
00:00 UTC

Mar-20 @ 00:00 UTC

BECMG 1916/1917 20015G25KT 9999 SKC QNH3011INS TX17/1918Z TN04/1912Z LAST NO AMDS AFT 1901 NEXT 1910

Becoming

Becoming Conditions expected by Tue, Mar 19, 2019 @ 17:00 UTC

Wind
  • 200° at 15 KTS
  • {Gusting to 25 KTS
Cloud Levels
  • Clear skies